sensor_id;sensor_type;location;lat;lon;timestamp;pressure;altitude;pressure_sealevel;temperature;humidity
3844;BME280;1937;51.444;6.484;2023-02-10T00:01:52;66699.16;;;5.30;84.47
3844;BME280;1937;51.444;6.484;2023-02-10T00:04:22;66713.94;;;5.19;84.92
3844;BME280;1937;51.444;6.484;2023-02-10T00:06:52;66715.00;;;5.15;84.92
3844;BME280;1937;51.444;6.484;2023-02-10T00:09:23;66658.22;;;5.10;85.18
3844;BME280;1937;51.444;6.484;2023-02-10T00:11:53;66681.22;;;5.26;84.41
3844;BME280;1937;51.444;6.484;2023-02-10T00:14:26;66710.34;;;5.22;84.62
3844;BME280;1937;51.444;6.484;2023-02-10T00:16:57;66696.66;;;5.19;84.88
3844;BME280;1937;51.444;6.484;2023-02-10T00:19:29;66718.22;;;5.20;85.01
3844;BME280;1937;51.444;6.484;2023-02-10T00:21:57;66705.25;;;5.22;85.17
3844;BME280;1937;51.444;6.484;2023-02-10T00:24:28;66714.03;;;5.23;85.05
3844;BME280;1937;51.444;6.484;2023-02-10T00:26:58;66716.06;;;5.12;85.51
3844;BME280;1937;51.444;6.484;2023-02-10T00:29:29;66692.69;;;5.05;85.91
3844;BME280;1937;51.444;6.484;2023-02-10T00:32:00;66698.53;;;5.14;86.20
3844;BME280;1937;51.444;6.484;2023-02-10T00:34:30;66705.63;;;5.14;86.35
3844;BME280;1937;51.444;6.484;2023-02-10T00:37:00;66703.66;;;5.14;86.50
3844;BME280;1937;51.444;6.484;2023-02-10T00:39:30;66710.53;;;5.05;86.73
3844;BME280;1937;51.444;6.484;2023-02-10T00:42:01;66755.16;;;5.10;86.82
3844;BME280;1937;51.444;6.484;2023-02-10T00:44:31;66713.19;;;5.09;86.73
3844;BME280;1937;51.444;6.484;2023-02-10T00:47:01;66733.78;;;5.18;86.57
3844;BME280;1937;51.444;6.484;2023-02-10T00:49:31;66688.03;;;5.12;86.65
3844;BME280;1937;51.444;6.484;2023-02-10T00:52:01;66768.09;;;5.19;86.37
3844;BME280;1937;51.444;6.484;2023-02-10T00:54:32;66759.72;;;5.25;86.23
3844;BME280;1937;51.444;6.484;2023-02-10T00:57:02;66708.22;;;5.03;86.77
3844;BME280;1937;51.444;6.484;2023-02-10T00:59:32;66752.38;;;5.12;87.13
3844;BME280;1937;51.444;6.484;2023-02-10T01:02:02;66764.16;;;5.20;87.10
3844;BME280;1937;51.444;6.484;2023-02-10T01:07:02;66752.63;;;5.26;86.73
3844;BME280;1937;51.444;6.484;2023-02-10T01:09:32;66785.19;;;5.36;86.65
3844;BME280;1937;51.444;6.484;2023-02-10T01:12:03;66760.16;;;5.32;86.40
3844;BME280;1937;51.444;6.484;2023-02-10T01:14:33;66709.19;;;5.21;86.54
3844;BME280;1937;51.444;6.484;2023-02-10T01:17:03;66717.41;;;5.22;86.95
3844;BME280;1937;51.444;6.484;2023-02-10T01:19:34;66772.13;;;5.23;87.06
3844;BME280;1937;51.444;6.484;2023-02-10T01:22:04;66723.47;;;5.14;87.38
3844;BME280;1937;51.444;6.484;2023-02-10T01:24:38;66720.75;;;5.05;87.44
3844;BME280;1937;51.444;6.484;2023-02-10T01:27:08;66756.19;;;5.07;87.66
3844;BME280;1937;51.444;6.484;2023-02-10T01:29:38;66729.19;;;5.03;87.34
3844;BME280;1937;51.444;6.484;2023-02-10T01:32:08;66708.94;;;4.97;87.18
3844;BME280;1937;51.444;6.484;2023-02-10T01:34:39;66710.09;;;4.98;87.27
3844;BME280;1937;51.444;6.484;2023-02-10T01:37:09;66737.13;;;4.90;87.77
3844;BME280;1937;51.444;6.484;2023-02-10T01:39:40;66716.53;;;4.81;88.55
3844;BME280;1937;51.444;6.484;2023-02-10T01:42:15;66739.22;;;4.94;88.24
3844;BME280;1937;51.444;6.484;2023-02-10T01:45:14;66764.72;;;4.94;88.14
3844;BME280;1937;51.444;6.484;2023-02-10T01:47:45;66746.88;;;4.94;88.10
3844;BME280;1937;51.444;6.484;2023-02-10T01:50:16;66759.38;;;4.96;88.24
3844;BME280;1937;51.444;6.484;2023-02-10T01:52:49;66734.88;;;4.77;88.64
3844;BME280;1937;51.444;6.484;2023-02-10T01:55:22;66763.59;;;4.82;89.05
3844;BME280;1937;51.444;6.484;2023-02-10T01:57:54;66735.56;;;4.82;89.32
3844;BME280;1937;51.444;6.484;2023-02-10T02:00:25;66725.44;;;4.86;88.89
3844;BME280;1937;51.444;6.484;2023-02-10T02:02:56;66756.63;;;4.87;89.31
3844;BME280;1937;51.444;6.484;2023-02-10T02:05:41;66771.50;;;5.07;88.24
3844;BME280;1937;51.444;6.484;2023-02-10T02:08:12;66789.91;;;5.18;88.14
3844;BME280;1937;51.444;6.484;2023-02-10T02:10:58;66723.56;;;4.91;88.37
3844;BME280;1937;51.444;6.484;2023-02-10T02:13:42;66759.50;;;4.89;88.97
3844;BME280;1937;51.444;6.484;2023-02-10T02:16:21;66711.81;;;4.72;89.42
3844;BME280;1937;51.444;6.484;2023-02-10T02:18:57;66770.03;;;4.65;89.48
3844;BME280;1937;51.444;6.484;2023-02-10T02:21:42;66731.41;;;4.74;89.36
3844;BME280;1937;51.444;6.484;2023-02-10T02:24:41;66736.75;;;4.61;89.89
3844;BME280;1937;51.444;6.484;2023-02-10T02:33:43;66704.19;;;4.34;90.43
3844;BME280;1937;51.444;6.484;2023-02-10T02:36:19;66691.38;;;4.19;90.89
3844;BME280;1937;51.444;6.484;2023-02-10T02:38:49;66684.47;;;4.01;91.54
3844;BME280;1937;51.444;6.484;2023-02-10T02:41:24;66705.22;;;3.93;91.97
3844;BME280;1937;51.444;6.484;2023-02-10T02:43:55;66689.34;;;4.03;91.29
3844;BME280;1937;51.444;6.484;2023-02-10T02:46:31;66716.66;;;3.98;91.77
3844;BME280;1937;51.444;6.484;2023-02-10T02:49:12;66711.13;;;3.91;92.34
3844;BME280;1937;51.444;6.484;2023-02-10T02:51:46;66711.47;;;3.71;92.69
3844;BME280;1937;51.444;6.484;2023-02-10T02:54:24;66718.16;;;3.91;92.48
3844;BME280;1937;51.444;6.484;2023-02-10T02:56:58;66710.56;;;3.80;92.83
3844;BME280;1937;51.444;6.484;2023-02-10T02:59:34;66694.25;;;3.72;92.53
3844;BME280;1937;51.444;6.484;2023-02-10T03:02:06;66686.63;;;3.61;93.59
3844;BME280;1937;51.444;6.484;2023-02-10T03:04:40;66720.41;;;3.66;93.42
3844;BME280;1937;51.444;6.484;2023-02-10T03:07:10;66681.22;;;3.47;93.98
3844;BME280;1937;51.444;6.484;2023-02-10T03:09:39;66705.94;;;3.42;93.46
3844;BME280;1937;51.444;6.484;2023-02-10T03:12:07;66690.13;;;3.30;94.41
3844;BME280;1937;51.444;6.484;2023-02-10T03:14:36;66667.13;;;3.15;94.52
3844;BME280;1937;51.444;6.484;2023-02-10T03:17:04;66655.22;;;3.13;94.21
3844;BME280;1937;51.444;6.484;2023-02-10T03:19:32;66696.00;;;3.07;94.59
3844;BME280;1937;51.444;6.484;2023-02-10T03:22:04;66704.56;;;2.99;95.24
3844;BME280;1937;51.444;6.484;2023-02-10T03:24:33;66668.63;;;2.96;95.00
3844;BME280;1937;51.444;6.484;2023-02-10T03:27:01;66701.56;;;2.92;95.15
3844;BME280;1937;51.444;6.484;2023-02-10T03:29:32;66696.13;;;2.89;95.18
3844;BME280;1937;51.444;6.484;2023-02-10T03:32:01;66697.06;;;2.81;96.16
3844;BME280;1937;51.444;6.484;2023-02-10T03:34:32;66703.75;;;2.78;96.12
3844;BME280;1937;51.444;6.484;2023-02-10T03:37:01;66718.06;;;2.86;95.87
3844;BME280;1937;51.444;6.484;2023-02-10T03:39:30;66709.19;;;2.92;95.62
3844;BME280;1937;51.444;6.484;2023-02-10T03:41:59;66720.63;;;2.86;95.11
3844;BME280;1937;51.444;6.484;2023-02-10T03:44:27;66691.97;;;2.81;95.87
3844;BME280;1937;51.444;6.484;2023-02-10T03:46:56;66701.75;;;2.67;95.85
3844;BME280;1937;51.444;6.484;2023-02-10T03:49:24;66692.06;;;2.74;95.72
3844;BME280;1937;51.444;6.484;2023-02-10T03:51:52;66685.72;;;2.69;96.11
3844;BME280;1937;51.444;6.484;2023-02-10T03:54:22;66719.34;;;2.80;95.92
3844;BME280;1937;51.444;6.484;2023-02-10T03:56:51;66717.81;;;2.66;95.47
3844;BME280;1937;51.444;6.484;2023-02-10T03:59:20;66679.00;;;2.50;96.51
3844;BME280;1937;51.444;6.484;2023-02-10T04:01:48;66704.88;;;2.68;95.76
3844;BME280;1937;51.444;6.484;2023-02-10T04:04:17;66693.66;;;2.60;95.59
3844;BME280;1937;51.444;6.484;2023-02-10T04:06:45;66646.56;;;2.50;96.56
3844;BME280;1937;51.444;6.484;2023-02-10T04:09:13;66655.09;;;2.42;96.42
3844;BME280;1937;51.444;6.484;2023-02-10T04:11:41;66656.94;;;2.37;96.41
3844;BME280;1937;51.444;6.484;2023-02-10T04:14:11;66610.06;;;2.14;96.58
3844;BME280;1937;51.444;6.484;2023-02-10T04:16:39;66667.94;;;2.06;97.04
3844;BME280;1937;51.444;6.484;2023-02-10T04:19:07;66674.88;;;2.13;97.18
3844;BME280;1937;51.444;6.484;2023-02-10T04:21:36;66669.94;;;2.17;97.24
3844;BME280;1937;51.444;6.484;2023-02-10T04:24:05;66705.38;;;2.24;97.53
3844;BME280;1937;51.444;6.484;2023-02-10T04:26:33;66691.38;;;2.18;97.09
3844;BME280;1937;51.444;6.484;2023-02-10T04:29:02;66696.69;;;2.05;97.88
3844;BME280;1937;51.444;6.484;2023-02-10T04:31:31;66714.38;;;2.23;97.46
3844;BME280;1937;51.444;6.484;2023-02-10T04:33:59;66713.13;;;2.28;97.32
3844;BME280;1937;51.444;6.484;2023-02-10T04:36:28;66704.31;;;2.16;97.82
3844;BME280;1937;51.444;6.484;2023-02-10T04:38:58;66683.66;;;2.14;97.61
3844;BME280;1937;51.444;6.484;2023-02-10T04:41:27;66720.63;;;2.24;97.10
3844;BME280;1937;51.444;6.484;2023-02-10T04:43:58;66703.75;;;2.16;98.24
3844;BME280;1937;51.444;6.484;2023-02-10T04:46:26;66741.84;;;2.27;96.98
3844;BME280;1937;51.444;6.484;2023-02-10T04:48:56;66747.97;;;2.23;97.44
3844;BME280;1937;51.444;6.484;2023-02-10T04:51:25;66704.31;;;2.16;97.80
3844;BME280;1937;51.444;6.484;2023-02-10T04:53:53;66733.78;;;2.31;97.42
3844;BME280;1937;51.444;6.484;2023-02-10T04:56:21;66731.81;;;2.31;97.43
3844;BME280;1937;51.444;6.484;2023-02-10T04:58:52;66762.88;;;2.32;97.27
3844;BME280;1937;51.444;6.484;2023-02-10T05:01:20;66730.97;;;2.11;98.21
3844;BME280;1937;51.444;6.484;2023-02-10T05:03:49;66712.72;;;2.15;98.38
3844;BME280;1937;51.444;6.484;2023-02-10T05:06:18;66775.78;;;2.30;97.68
3844;BME280;1937;51.444;6.484;2023-02-10T05:08:46;66737.44;;;2.21;97.84
3844;BME280;1937;51.444;6.484;2023-02-10T05:11:17;66734.78;;;2.16;98.34
3844;BME280;1937;51.444;6.484;2023-02-10T05:13:47;66754.06;;;2.20;97.65
3844;BME280;1937;51.444;6.484;2023-02-10T05:16:16;66738.34;;;2.13;97.86
3844;BME280;1937;51.444;6.484;2023-02-10T05:18:43;66728.50;;;2.04;98.70
3844;BME280;1937;51.444;6.484;2023-02-10T05:21:14;66739.53;;;1.96;98.88
3844;BME280;1937;51.444;6.484;2023-02-10T05:23:44;66687.47;;;1.79;98.61
3844;BME280;1937;51.444;6.484;2023-02-10T05:26:13;66680.34;;;1.86;98.67
3844;BME280;1937;51.444;6.484;2023-02-10T05:28:41;66740.75;;;1.79;98.49
3844;BME280;1937;51.444;6.484;2023-02-10T05:31:11;66725.75;;;1.77;98.90
3844;BME280;1937;51.444;6.484;2023-02-10T05:33:39;66723.16;;;1.66;99.14
3844;BME280;1937;51.444;6.484;2023-02-10T05:36:09;66756.19;;;1.77;98.81
3844;BME280;1937;51.444;6.484;2023-02-10T05:38:38;66752.19;;;1.85;98.96
3844;BME280;1937;51.444;6.484;2023-02-10T05:41:27;66744.66;;;1.78;99.00
3844;BME280;1937;51.444;6.484;2023-02-10T05:43:58;66739.38;;;1.80;99.20
3844;BME280;1937;51.444;6.484;2023-02-10T05:46:26;66752.06;;;1.80;98.44
3844;BME280;1937;51.444;6.484;2023-02-10T05:48:54;66727.06;;;1.65;99.36
3844;BME280;1937;51.444;6.484;2023-02-10T05:51:23;66713.28;;;1.46;99.50
3844;BME280;1937;51.444;6.484;2023-02-10T05:53:51;66751.44;;;1.69;98.74
3844;BME280;1937;51.444;6.484;2023-02-10T05:56:20;66723.19;;;1.48;98.94
3844;BME280;1937;51.444;6.484;2023-02-10T05:58:50;66723.78;;;1.49;99.63
3844;BME280;1937;51.444;6.484;2023-02-10T06:01:18;66742.97;;;1.59;99.51
3844;BME280;1937;51.444;6.484;2023-02-10T06:03:47;66740.88;;;1.55;99.29
3844;BME280;1937;51.444;6.484;2023-02-10T06:06:15;66705.22;;;1.50;99.22
3844;BME280;1937;51.444;6.484;2023-02-10T06:08:43;66731.50;;;1.53;99.35
3844;BME280;1937;51.444;6.484;2023-02-10T06:11:12;66749.56;;;1.62;99.57
3844;BME280;1937;51.444;6.484;2023-02-10T06:13:40;66725.66;;;1.55;99.24
3844;BME280;1937;51.444;6.484;2023-02-10T06:16:10;66788.25;;;1.56;99.88
3844;BME280;1937;51.444;6.484;2023-02-10T06:18:39;66769.41;;;1.67;99.73
3844;BME280;1937;51.444;6.484;2023-02-10T06:21:07;66763.03;;;1.61;99.70
3844;BME280;1937;51.444;6.484;2023-02-10T06:23:36;66779.41;;;1.62;99.48
3844;BME280;1937;51.444;6.484;2023-02-10T06:26:05;66784.41;;;1.69;99.47
3844;BME280;1937;51.444;6.484;2023-02-10T06:28:34;66775.56;;;1.56;99.85
3844;BME280;1937;51.444;6.484;2023-02-10T06:31:02;66758.13;;;1.48;100.00
3844;BME280;1937;51.444;6.484;2023-02-10T06:33:32;66761.16;;;1.55;100.00
3844;BME280;1937;51.444;6.484;2023-02-10T06:36:05;66779.63;;;1.60;100.00
3844;BME280;1937;51.444;6.484;2023-02-10T06:38:35;66755.31;;;1.39;100.00
3844;BME280;1937;51.444;6.484;2023-02-10T06:41:05;66813.81;;;1.54;100.00
3844;BME280;1937;51.444;6.484;2023-02-10T06:43:34;66871.88;;;1.63;100.00
3844;BME280;1937;51.444;6.484;2023-02-10T06:46:04;66845.28;;;1.69;100.00
3844;BME280;1937;51.444;6.484;2023-02-10T06:48:36;66845.06;;;1.71;100.00
3844;BME280;1937;51.444;6.484;2023-02-10T06:51:06;66852.66;;;1.71;100.00
3844;BME280;1937;51.444;6.484;2023-02-10T06:53:34;66791.72;;;1.59;100.00
3844;BME280;1937;51.444;6.484;2023-02-10T06:56:05;66859.69;;;1.70;100.00
3844;BME280;1937;51.444;6.484;2023-02-10T06:58:33;66834.81;;;1.59;100.00
3844;BME280;1937;51.444;6.484;2023-02-10T07:01:02;66843.47;;;1.56;100.00
3844;BME280;1937;51.444;6.484;2023-02-10T07:03:35;66841.38;;;1.70;100.00
3844;BME280;1937;51.444;6.484;2023-02-10T07:06:04;66845.78;;;1.76;100.00
3844;BME280;1937;51.444;6.484;2023-02-10T07:08:35;66867.38;;;1.63;100.00
3844;BME280;1937;51.444;6.484;2023-02-10T07:11:06;66855.94;;;1.76;100.00
3844;BME280;1937;51.444;6.484;2023-02-10T07:13:34;66860.69;;;1.84;100.00
3844;BME280;1937;51.444;6.484;2023-02-10T07:16:05;66939.72;;;1.87;100.00
3844;BME280;1937;51.444;6.484;2023-02-10T07:18:33;66891.44;;;1.93;100.00
3844;BME280;1937;51.444;6.484;2023-02-10T07:21:03;66932.78;;;1.98;100.00
3844;BME280;1937;51.444;6.484;2023-02-10T07:23:31;66935.38;;;2.10;100.00
3844;BME280;1937;51.444;6.484;2023-02-10T07:26:00;66912.16;;;2.07;99.87
3844;BME280;1937;51.444;6.484;2023-02-10T07:28:28;66937.84;;;2.16;99.85
3844;BME280;1937;51.444;6.484;2023-02-10T07:30:56;66927.19;;;2.09;99.44
3844;BME280;1937;51.444;6.484;2023-02-10T07:33:25;66894.13;;;1.98;100.00
3844;BME280;1937;51.444;6.484;2023-02-10T07:35:57;66936.31;;;1.95;100.00
3844;BME280;1937;51.444;6.484;2023-02-10T07:38:28;66916.97;;;1.98;100.00
3844;BME280;1937;51.444;6.484;2023-02-10T07:40:56;66875.50;;;1.88;100.00
3844;BME280;1937;51.444;6.484;2023-02-10T07:43:24;66928.41;;;1.86;100.00
3844;BME280;1937;51.444;6.484;2023-02-10T07:45:53;66922.16;;;1.85;100.00
3844;BME280;1937;51.444;6.484;2023-02-10T07:48:21;66927.97;;;1.90;100.00
3844;BME280;1937;51.444;6.484;2023-02-10T07:50:49;66920.66;;;1.99;99.75
3844;BME280;1937;51.444;6.484;2023-02-10T07:53:18;66908.31;;;2.01;100.00
3844;BME280;1937;51.444;6.484;2023-02-10T07:55:49;66929.72;;;2.09;99.83
3844;BME280;1937;51.444;6.484;2023-02-10T07:58:17;66916.53;;;2.02;100.00
3844;BME280;1937;51.444;6.484;2023-02-10T08:00:46;66921.72;;;2.06;99.69
3844;BME280;1937;51.444;6.484;2023-02-10T08:03:17;66973.31;;;2.23;99.40
3844;BME280;1937;51.444;6.484;2023-02-10T08:05:47;66942.94;;;2.16;100.00
3844;BME280;1937;51.444;6.484;2023-02-10T08:08:18;66962.00;;;2.22;99.52
3844;BME280;1937;51.444;6.484;2023-02-10T08:10:48;66955.56;;;2.23;99.54
3844;BME280;1937;51.444;6.484;2023-02-10T08:13:16;66932.03;;;2.29;99.26
3844;BME280;1937;51.444;6.484;2023-02-10T08:15:46;66954.09;;;2.30;99.62
3844;BME280;1937;51.444;6.484;2023-02-10T08:18:15;66953.59;;;2.23;99.67
3844;BME280;1937;51.444;6.484;2023-02-10T08:20:43;66962.16;;;2.26;100.00
3844;BME280;1937;51.444;6.484;2023-02-10T08:23:15;67021.72;;;2.45;100.00
3844;BME280;1937;51.444;6.484;2023-02-10T08:25:45;67032.41;;;2.52;100.00
3844;BME280;1937;51.444;6.484;2023-02-10T08:28:14;67037.25;;;2.54;100.00
3844;BME280;1937;51.444;6.484;2023-02-10T08:30:43;67100.41;;;2.69;100.00
3844;BME280;1937;51.444;6.484;2023-02-10T08:33:12;67118.88;;;2.81;100.00
3844;BME280;1937;51.444;6.484;2023-02-10T08:35:40;67154.25;;;3.01;100.00
3844;BME280;1937;51.444;6.484;2023-02-10T08:38:09;67102.47;;;2.98;100.00
3844;BME280;1937;51.444;6.484;2023-02-10T08:40:37;67117.09;;;3.04;100.00
3844;BME280;1937;51.444;6.484;2023-02-10T08:43:05;67133.13;;;3.02;100.00
3844;BME280;1937;51.444;6.484;2023-02-10T08:45:36;67145.06;;;3.21;100.00
3844;BME280;1937;51.444;6.484;2023-02-10T08:48:05;67174.56;;;3.25;99.88
3844;BME280;1937;51.444;6.484;2023-02-10T08:50:34;67148.97;;;3.20;99.35
3844;BME280;1937;51.444;6.484;2023-02-10T08:53:02;67134.16;;;3.16;100.00
3844;BME280;1937;51.444;6.484;2023-02-10T08:55:31;67191.50;;;3.33;100.00
3844;BME280;1937;51.444;6.484;2023-02-10T08:57:59;67189.41;;;3.47;100.00
3844;BME280;1937;51.444;6.484;2023-02-10T09:00:27;67240.38;;;3.58;98.94
3844;BME280;1937;51.444;6.484;2023-02-10T09:02:57;67241.84;;;3.68;98.73
3844;BME280;1937;51.444;6.484;2023-02-10T09:05:26;67135.53;;;3.68;97.34
3844;BME280;1937;51.444;6.484;2023-02-10T09:07:55;67184.81;;;3.71;98.27
3844;BME280;1937;51.444;6.484;2023-02-10T09:10:23;67214.44;;;3.86;98.09
3844;BME280;1937;51.444;6.484;2023-02-10T09:12:51;67200.63;;;3.96;96.66
3844;BME280;1937;51.444;6.484;2023-02-10T09:15:21;67184.53;;;3.98;96.35
3844;BME280;1937;51.444;6.484;2023-02-10T09:17:49;67210.00;;;4.16;96.22
3844;BME280;1937;51.444;6.484;2023-02-10T09:20:19;67184.81;;;3.89;97.35
3844;BME280;1937;51.444;6.484;2023-02-10T09:22:47;67155.81;;;3.93;97.39
3844;BME280;1937;51.444;6.484;2023-02-10T09:25:17;67229.19;;;4.15;96.48
3844;BME280;1937;51.444;6.484;2023-02-10T09:27:46;67223.44;;;4.21;96.68
3844;BME280;1937;51.444;6.484;2023-02-10T09:30:15;67246.88;;;4.45;96.50
3844;BME280;1937;51.444;6.484;2023-02-10T09:32:43;67195.88;;;4.34;95.53
3844;BME280;1937;51.444;6.484;2023-02-10T09:35:11;67153.44;;;4.26;95.98
3844;BME280;1937;51.444;6.484;2023-02-10T09:37:41;67224.09;;;4.32;95.80
3844;BME280;1937;51.444;6.484;2023-02-10T09:40:11;67140.09;;;4.26;96.75
3844;BME280;1937;51.444;6.484;2023-02-10T09:42:54;67231.84;;;4.54;96.12
3844;BME280;1937;51.444;6.484;2023-02-10T09:45:29;67249.47;;;4.74;95.15
3844;BME280;1937;51.444;6.484;2023-02-10T09:48:03;67258.38;;;4.98;94.67
3844;BME280;1937;51.444;6.484;2023-02-10T09:50:44;67249.69;;;5.01;93.42
3844;BME280;1937;51.444;6.484;2023-02-10T09:53:19;67247.47;;;5.21;92.78
3844;BME280;1937;51.444;6.484;2023-02-10T09:55:50;67213.88;;;5.36;91.69
3844;BME280;1937;51.444;6.484;2023-02-10T09:58:26;67218.91;;;5.54;90.48
3844;BME280;1937;51.444;6.484;2023-02-10T10:01:00;67157.78;;;5.59;90.16
3844;BME280;1937;51.444;6.484;2023-02-10T10:03:37;67238.63;;;5.89;89.62
3844;BME280;1937;51.444;6.484;2023-02-10T10:06:12;67112.53;;;5.97;87.47
3844;BME280;1937;51.444;6.484;2023-02-10T10:08:50;67103.94;;;5.83;87.30
3844;BME280;1937;51.444;6.484;2023-02-10T10:11:25;67085.38;;;5.89;87.47
3844;BME280;1937;51.444;6.484;2023-02-10T10:13:55;67098.72;;;6.12;86.68
3844;BME280;1937;51.444;6.484;2023-02-10T10:16:43;67112.28;;;6.33;86.46
3844;BME280;1937;51.444;6.484;2023-02-10T10:19:21;67032.41;;;6.16;85.17
3844;BME280;1937;51.444;6.484;2023-02-10T10:21:58;67089.03;;;6.46;84.77
3844;BME280;1937;51.444;6.484;2023-02-10T10:24:45;67055.53;;;6.59;84.28
3844;BME280;1937;51.444;6.484;2023-02-10T10:27:28;67097.94;;;6.63;83.03
3844;BME280;1937;51.444;6.484;2023-02-10T10:30:04;67038.19;;;6.71;83.21
3844;BME280;1937;51.444;6.484;2023-02-10T10:32:40;67058.63;;;6.71;82.53
3844;BME280;1937;51.444;6.484;2023-02-10T10:35:16;67126.16;;;7.16;81.84
3844;BME280;1937;51.444;6.484;2023-02-10T10:37:46;67109.50;;;7.22;81.14
3844;BME280;1937;51.444;6.484;2023-02-10T10:40:21;67123.06;;;7.31;80.84
3844;BME280;1937;51.444;6.484;2023-02-10T10:42:52;67066.75;;;7.31;80.27
3844;BME280;1937;51.444;6.484;2023-02-10T10:45:29;67104.78;;;7.40;80.55
3844;BME280;1937;51.444;6.484;2023-02-10T10:48:00;67188.34;;;7.75;79.69
3844;BME280;1937;51.444;6.484;2023-02-10T10:50:32;67144.50;;;7.61;77.10
3844;BME280;1937;51.444;6.484;2023-02-10T10:53:03;67077.94;;;7.77;78.19
3844;BME280;1937;51.444;6.484;2023-02-10T10:55:38;67114.88;;;7.73;78.69
3844;BME280;1937;51.444;6.484;2023-02-10T10:58:15;67144.16;;;7.86;77.87
3844;BME280;1937;51.444;6.484;2023-02-10T11:00:51;67071.47;;;7.67;78.03
3844;BME280;1937;51.444;6.484;2023-02-10T11:03:21;67037.91;;;7.53;78.77
3844;BME280;1937;51.444;6.484;2023-02-10T11:06:00;67125.91;;;7.83;79.31
3844;BME280;1937;51.444;6.484;2023-02-10T11:08:35;67091.28;;;7.62;78.61
3844;BME280;1937;51.444;6.484;2023-02-10T11:11:07;67122.50;;;7.58;79.21
3844;BME280;1937;51.444;6.484;2023-02-10T11:13:39;67077.56;;;7.59;79.03
3844;BME280;1937;51.444;6.484;2023-02-10T11:16:12;67080.75;;;7.48;79.67
3844;BME280;1937;51.444;6.484;2023-02-10T11:18:53;67143.66;;;7.90;79.20
3844;BME280;1937;51.444;6.484;2023-02-10T11:21:31;67052.06;;;7.63;78.40
3844;BME280;1937;51.444;6.484;2023-02-10T11:24:00;67076.44;;;7.73;78.64
3844;BME280;1937;51.444;6.484;2023-02-10T11:26:31;67112.44;;;7.94;78.84
3844;BME280;1937;51.444;6.484;2023-02-10T11:29:10;67141.88;;;7.99;78.03
3844;BME280;1937;51.444;6.484;2023-02-10T11:31:38;67180.88;;;8.27;77.72
3844;BME280;1937;51.444;6.484;2023-02-10T11:34:17;67141.47;;;8.35;77.85
3844;BME280;1937;51.444;6.484;2023-02-10T11:36:49;67175.38;;;8.35;76.60
3844;BME280;1937;51.444;6.484;2023-02-10T11:39:22;67186.34;;;8.56;76.69
3844;BME280;1937;51.444;6.484;2023-02-10T11:41:53;67188.66;;;8.74;75.28
3844;BME280;1937;51.444;6.484;2023-02-10T11:44:26;67211.91;;;8.51;74.49
3844;BME280;1937;51.444;6.484;2023-02-10T11:46:58;67115.53;;;8.21;75.75
3844;BME280;1937;51.444;6.484;2023-02-10T11:49:27;67110.25;;;8.12;76.91
3844;BME280;1937;51.444;6.484;2023-02-10T11:51:59;67086.81;;;7.94;76.78
3844;BME280;1937;51.444;6.484;2023-02-10T11:54:29;67129.72;;;8.31;75.91
3844;BME280;1937;51.444;6.484;2023-02-10T11:57:16;67147.94;;;8.45;74.51
3844;BME280;1937;51.444;6.484;2023-02-10T12:00:09;67144.22;;;8.75;73.87
3844;BME280;1937;51.444;6.484;2023-02-10T12:02:58;67213.72;;;9.00;73.86
3844;BME280;1937;51.444;6.484;2023-02-10T12:05:36;67230.13;;;9.23;72.66
3844;BME280;1937;51.444;6.484;2023-02-10T12:08:13;67274.94;;;9.40;71.24
3844;BME280;1937;51.444;6.484;2023-02-10T12:10:49;67189.03;;;9.23;70.67
3844;BME280;1937;51.444;6.484;2023-02-10T12:13:29;67170.22;;;9.09;69.92
3844;BME280;1937;51.444;6.484;2023-02-10T12:16:07;67166.50;;;9.08;69.93
3844;BME280;1937;51.444;6.484;2023-02-10T12:18:50;67190.69;;;9.20;69.63
3844;BME280;1937;51.444;6.484;2023-02-10T12:21:33;67163.53;;;9.17;70.28
3844;BME280;1937;51.444;6.484;2023-02-10T12:24:13;67192.66;;;9.20;70.28
3844;BME280;1937;51.444;6.484;2023-02-10T12:26:48;67191.84;;;9.21;69.31
3844;BME280;1937;51.444;6.484;2023-02-10T12:29:28;67127.97;;;9.08;70.26
3844;BME280;1937;51.444;6.484;2023-02-10T12:32:05;67105.06;;;9.01;66.70
3844;BME280;1937;51.444;6.484;2023-02-10T12:34:43;67121.53;;;8.98;67.56
3844;BME280;1937;51.444;6.484;2023-02-10T12:37:19;67106.06;;;8.93;67.43
3844;BME280;1937;51.444;6.484;2023-02-10T12:39:58;67128.59;;;8.93;67.97
3844;BME280;1937;51.444;6.484;2023-02-10T12:42:37;67083.38;;;9.00;68.50
3844;BME280;1937;51.444;6.484;2023-02-10T12:45:19;67131.78;;;9.14;68.70
3844;BME280;1937;51.444;6.484;2023-02-10T12:48:01;67119.78;;;8.96;66.82
3844;BME280;1937;51.444;6.484;2023-02-10T12:50:40;67131.97;;;9.23;67.29
3844;BME280;1937;51.444;6.484;2023-02-10T12:53:16;67094.94;;;9.11;67.41
3844;BME280;1937;51.444;6.484;2023-02-10T12:55:53;67155.06;;;9.23;67.72
3844;BME280;1937;51.444;6.484;2023-02-10T12:58:24;67109.91;;;9.19;64.71
3844;BME280;1937;51.444;6.484;2023-02-10T13:01:07;67124.66;;;9.14;63.63
3844;BME280;1937;51.444;6.484;2023-02-10T13:03:39;67111.50;;;9.27;63.09
3844;BME280;1937;51.444;6.484;2023-02-10T13:06:19;67058.19;;;9.12;64.20
3844;BME280;1937;51.444;6.484;2023-02-10T13:08:53;67105.88;;;9.16;64.21
3844;BME280;1937;51.444;6.484;2023-02-10T13:11:33;67084.50;;;9.17;64.59
3844;BME280;1937;51.444;6.484;2023-02-10T13:14:05;67045.34;;;9.12;65.07
3844;BME280;1937;51.444;6.484;2023-02-10T13:16:38;67100.50;;;9.18;63.90
3844;BME280;1937;51.444;6.484;2023-02-10T13:19:12;67047.50;;;9.05;64.29
3844;BME280;1937;51.444;6.484;2023-02-10T13:21:54;67081.94;;;9.17;65.55
3844;BME280;1937;51.444;6.484;2023-02-10T13:24:28;67067.28;;;9.11;64.79
3844;BME280;1937;51.444;6.484;2023-02-10T13:27:04;67090.69;;;9.29;65.78
3844;BME280;1937;51.444;6.484;2023-02-10T13:29:45;67094.31;;;9.41;65.30
3844;BME280;1937;51.444;6.484;2023-02-10T13:32:39;67180.97;;;9.52;65.55
3844;BME280;1937;51.444;6.484;2023-02-10T13:35:15;67095.84;;;9.29;65.50
3844;BME280;1937;51.444;6.484;2023-02-10T13:37:46;67104.69;;;9.30;65.57
3844;BME280;1937;51.444;6.484;2023-02-10T13:40:19;67120.25;;;9.39;65.52
3844;BME280;1937;51.444;6.484;2023-02-10T13:42:51;67125.50;;;9.28;65.64
3844;BME280;1937;51.444;6.484;2023-02-10T13:45:22;67094.91;;;9.26;66.22
3844;BME280;1937;51.444;6.484;2023-02-10T13:47:54;67099.25;;;9.12;67.67
3844;BME280;1937;51.444;6.484;2023-02-10T13:50:26;67157.03;;;9.38;66.62
3844;BME280;1937;51.444;6.484;2023-02-10T13:52:57;67122.69;;;9.30;66.63
3844;BME280;1937;51.444;6.484;2023-02-10T13:55:40;67124.31;;;9.27;67.07
3844;BME280;1937;51.444;6.484;2023-02-10T13:58:25;67047.00;;;9.09;67.39
3844;BME280;1937;51.444;6.484;2023-02-10T14:00:55;67113.56;;;9.16;68.06
3844;BME280;1937;51.444;6.484;2023-02-10T14:03:26;67085.75;;;9.23;67.56
3844;BME280;1937;51.444;6.484;2023-02-10T14:05:56;67131.31;;;9.18;68.12
3844;BME280;1937;51.444;6.484;2023-02-10T14:08:27;67102.97;;;9.13;67.06